Terminal Aerodrome Forecast
Issued by NWS Shreveport, LA

Home | Current Version | Previous Version | Text Only | Print | Product List | Glossary On
Versions: 1 2 3 4 5 6 7 8 9 10 11 12 13 14 15 16
000
FTUS44 KSHV 202300 RRA
TAFTXK
TAF
KTXK 202348Z 2100/2124 VRB03KT P6SM SCT060
      TEMPO 2111/2113 3SM BR BKN050
     FM211400 07003KT P6SM BKN035
     FM212200 06003KT P6SM SCT040=

USA.gov is the U.S. government's official web portal to all federal, state and local government web resources and services.